createdAt,value
2017-09-06T00:00:46.245Z,23.08
2017-09-06T00:05:48.167Z,23.14
2017-09-06T00:10:52.188Z,23.11
2017-09-06T00:15:54.177Z,23.01
2017-09-06T00:20:57.819Z,22.93
2017-09-06T00:25:59.814Z,23.06
2017-09-06T00:31:01.966Z,23.07
2017-09-06T00:36:04.188Z,22.89
2017-09-06T00:41:06.975Z,22.70
2017-09-06T00:46:09.874Z,22.63
2017-09-06T00:51:11.835Z,22.43
2017-09-06T00:56:14.208Z,22.37
2017-09-06T01:01:17.433Z,22.36
2017-09-06T01:06:19.730Z,22.36
2017-09-06T01:11:22.067Z,22.30
2017-09-06T01:16:24.089Z,22.21
2017-09-06T01:21:26.079Z,22.20
2017-09-06T01:26:28.056Z,22.14
2017-09-06T01:31:30.094Z,22.23
2017-09-06T01:36:32.082Z,22.18
2017-09-06T01:41:34.095Z,21.96
2017-09-06T01:46:36.117Z,21.84
2017-09-06T01:51:38.104Z,21.74
2017-09-06T01:56:40.103Z,21.63
2017-09-06T02:01:42.086Z,21.58
2017-09-06T02:06:44.092Z,21.57
2017-09-06T02:11:46.045Z,21.57
2017-09-06T02:16:47.999Z,21.57
2017-09-06T02:21:49.948Z,21.57
2017-09-06T02:26:51.911Z,21.56
2017-09-06T02:31:53.902Z,21.59
2017-09-06T02:36:55.886Z,21.62
2017-09-06T02:41:57.945Z,21.63
2017-09-06T02:46:59.994Z,21.62
2017-09-06T02:52:02.220Z,21.63
2017-09-06T02:57:04.211Z,21.67
2017-09-06T03:02:06.195Z,21.66
2017-09-06T03:07:13.704Z,21.66
2017-09-06T03:12:17.519Z,21.66
2017-09-06T03:17:23.050Z,21.66
2017-09-06T03:22:26.532Z,21.62
2017-09-06T03:27:29.839Z,21.64
2017-09-06T03:32:31.867Z,21.55
2017-09-06T03:37:33.843Z,21.53
2017-09-06T03:42:35.820Z,21.49
2017-09-06T03:47:37.809Z,21.50
2017-09-06T03:52:39.833Z,21.51
2017-09-06T03:57:41.805Z,21.46
2017-09-06T04:02:43.781Z,21.48
2017-09-06T04:07:45.727Z,21.46
2017-09-06T04:12:47.682Z,21.40
2017-09-06T04:17:49.607Z,21.42
2017-09-06T04:22:51.593Z,21.43
2017-09-06T04:27:53.624Z,21.43
2017-09-06T04:32:55.596Z,21.37
2017-09-06T04:37:57.531Z,21.35
2017-09-06T04:42:59.505Z,21.34
2017-09-06T04:48:01.464Z,21.26
2017-09-06T04:53:03.442Z,21.27
2017-09-06T04:58:05.444Z,21.26
2017-09-06T05:03:07.503Z,21.24
2017-09-06T05:08:09.436Z,21.11
2017-09-06T05:13:11.386Z,21.06
2017-09-06T05:18:13.358Z,21.13
2017-09-06T05:23:15.299Z,21.14
2017-09-06T05:28:19.850Z,21.12
2017-09-06T05:33:27.596Z,21.12
2017-09-06T05:38:34.373Z,21.31
2017-09-06T05:43:36.788Z,21.55
2017-09-06T05:48:38.760Z,21.90
2017-09-06T05:53:40.732Z,22.09
2017-09-06T05:58:42.665Z,22.03
2017-09-06T06:03:44.642Z,21.90
2017-09-06T06:08:46.576Z,21.79
2017-09-06T06:13:48.635Z,21.88
2017-09-06T06:18:50.568Z,21.95
2017-09-06T06:23:52.545Z,22.09
2017-09-06T06:28:54.523Z,22.16
2017-09-06T06:33:56.510Z,22.29
2017-09-06T06:38:58.471Z,22.25
2017-09-06T06:44:00.411Z,22.35
2017-09-06T06:49:02.868Z,22.37
2017-09-06T06:54:04.904Z,22.60
2017-09-06T06:59:06.899Z,22.79
2017-09-06T07:04:08.879Z,22.81
2017-09-06T07:09:10.853Z,23.06
2017-09-06T07:14:12.809Z,23.41
2017-09-06T07:19:14.815Z,23.38
2017-09-06T07:24:16.784Z,23.47
2017-09-06T07:29:19.676Z,23.40
2017-09-06T07:34:21.626Z,23.36
2017-09-06T07:39:23.908Z,23.59
2017-09-06T07:44:26.182Z,23.82
2017-09-06T07:49:28.273Z,24.04
2017-09-06T07:54:30.479Z,23.97
2017-09-06T07:59:32.451Z,23.98
2017-09-06T08:04:34.395Z,23.73
2017-09-06T08:09:36.621Z,23.61
2017-09-06T08:14:38.823Z,23.54
2017-09-06T08:19:41.441Z,23.56
2017-09-06T08:24:43.385Z,23.99
2017-09-06T08:29:45.403Z,24.19
2017-09-06T08:34:47.372Z,24.19
2017-09-06T08:39:49.318Z,24.31
2017-09-06T08:44:51.327Z,24.96
2017-09-06T08:49:53.333Z,25.27
2017-09-06T08:54:55.297Z,25.36
2017-09-06T08:59:57.263Z,25.10
2017-09-06T09:04:59.250Z,24.83
2017-09-06T09:10:01.201Z,24.12
2017-09-06T09:15:03.362Z,23.50
2017-09-06T09:20:05.377Z,22.85
2017-09-06T09:25:08.492Z,22.44
2017-09-06T09:30:10.528Z,22.10
2017-09-06T09:35:12.552Z,21.72
2017-09-06T09:40:14.553Z,21.34
2017-09-06T09:45:16.558Z,21.55
2017-09-06T09:50:18.544Z,22.26
2017-09-06T09:55:20.504Z,22.49
2017-09-06T10:00:22.479Z,22.36
2017-09-06T10:05:24.437Z,22.49
2017-09-06T10:10:26.378Z,22.43
2017-09-06T10:15:28.427Z,22.45
2017-09-06T10:20:30.615Z,22.48
2017-09-06T10:25:32.671Z,22.33
2017-09-06T10:30:34.684Z,22.66
2017-09-06T10:35:36.655Z,22.76
2017-09-06T10:40:38.698Z,22.53
2017-09-06T10:45:40.652Z,22.77
2017-09-06T10:50:42.704Z,23.07
2017-09-06T10:55:46.416Z,22.52
2017-09-06T11:00:48.357Z,22.35
2017-09-06T11:05:50.375Z,22.11
2017-09-06T11:10:52.328Z,21.99
2017-09-06T11:15:54.377Z,22.41
2017-09-06T11:20:56.325Z,23.02
2017-09-06T11:25:58.273Z,23.14
2017-09-06T11:31:00.310Z,23.02
2017-09-06T11:36:02.421Z,23.37
2017-09-06T11:41:04.410Z,23.34
2017-09-06T11:46:06.382Z,23.00
2017-09-06T11:51:08.383Z,22.86
2017-09-06T11:56:10.331Z,22.51
2017-09-06T12:01:12.279Z,22.18
2017-09-06T12:06:14.398Z,22.49
2017-09-06T12:11:17.987Z,23.08
2017-09-06T12:16:25.475Z,23.08
2017-09-06T12:21:28.744Z,22.66
2017-09-06T12:26:35.284Z,23.00
2017-09-06T12:31:40.543Z,22.96
2017-09-06T12:36:42.890Z,23.20
2017-09-06T12:41:44.901Z,23.18
2017-09-06T12:46:46.939Z,23.06
2017-09-06T12:51:48.905Z,22.81
2017-09-06T12:56:50.853Z,22.70
2017-09-06T13:01:52.832Z,22.62
2017-09-06T13:06:54.772Z,22.28
2017-09-06T13:11:56.721Z,22.38
2017-09-06T13:16:58.662Z,22.52
2017-09-06T13:22:00.611Z,22.89
2017-09-06T13:27:02.576Z,22.60
2017-09-06T13:32:05.234Z,22.57
2017-09-06T13:37:07.695Z,22.53
2017-09-06T13:42:10.458Z,22.55
2017-09-06T13:47:12.468Z,22.46
2017-09-06T13:52:14.436Z,22.33
2017-09-06T13:57:16.852Z,22.03
2017-09-06T14:02:18.801Z,21.93
2017-09-06T14:07:20.844Z,22.21
2017-09-06T14:12:22.788Z,22.51
2017-09-06T14:17:25.674Z,22.52
2017-09-06T14:22:27.603Z,22.78
2017-09-06T14:27:29.544Z,22.76
2017-09-06T14:32:31.532Z,22.86
2017-09-06T14:37:33.470Z,22.76
2017-09-06T14:42:35.516Z,22.99
2017-09-06T14:47:37.557Z,22.83
2017-09-06T14:52:39.508Z,22.44
2017-09-06T14:57:41.469Z,22.32
2017-09-06T15:02:45.790Z,21.81
2017-09-06T15:07:47.758Z,21.41
2017-09-06T15:12:49.712Z,20.52
2017-09-06T15:17:51.680Z,19.12
2017-09-06T15:22:53.641Z,18.82
2017-09-06T15:27:55.631Z,18.87
2017-09-06T15:33:04.662Z,18.99
2017-09-06T15:38:06.604Z,19.04
2017-09-06T15:43:08.529Z,19.11
2017-09-06T15:48:10.460Z,19.25
2017-09-06T15:53:12.392Z,19.59
2017-09-06T15:58:14.359Z,19.88
2017-09-06T16:03:16.475Z,20.04
2017-09-06T16:08:18.471Z,20.22
2017-09-06T16:13:20.408Z,20.04
2017-09-06T16:18:22.361Z,20.17
2017-09-06T16:23:25.434Z,20.06
2017-09-06T16:28:27.497Z,19.96
2017-09-06T16:33:30.452Z,20.21
2017-09-06T16:38:33.215Z,19.95
2017-09-06T16:43:35.715Z,19.69
2017-09-06T16:48:38.444Z,19.55
2017-09-06T16:53:41.662Z,19.52
2017-09-06T16:58:54.823Z,19.26
2017-09-06T17:03:57.542Z,19.27
2017-09-06T17:09:00.186Z,19.21
2017-09-06T17:14:02.266Z,19.05
2017-09-06T17:19:04.203Z,18.84
2017-09-06T17:24:06.271Z,18.89
2017-09-06T17:29:09.069Z,18.84
2017-09-06T17:34:11.151Z,18.77
2017-09-06T17:39:13.095Z,18.43
2017-09-06T17:44:15.307Z,18.25
2017-09-06T17:49:17.601Z,18.20
2017-09-06T17:54:22.645Z,18.08
2017-09-06T17:59:25.181Z,17.99
2017-09-06T18:04:27.587Z,17.94
2017-09-06T18:09:29.906Z,17.93
2017-09-06T18:14:32.273Z,17.87
2017-09-06T18:19:36.471Z,17.86
2017-09-06T18:24:39.442Z,17.81
2017-09-06T18:29:41.866Z,17.82
2017-09-06T18:34:44.279Z,17.81
2017-09-06T18:39:46.360Z,17.74
2017-09-06T18:44:48.594Z,17.67
2017-09-06T18:49:50.947Z,17.60
2017-09-06T18:54:53.376Z,17.49
2017-09-06T18:59:55.846Z,17.42
2017-09-06T19:04:58.033Z,17.45
2017-09-06T19:10:00.296Z,17.47
2017-09-06T19:15:02.562Z,17.57
2017-09-06T19:20:04.638Z,17.55
2017-09-06T19:25:06.684Z,17.70
2017-09-06T19:30:09.052Z,17.69
2017-09-06T19:35:11.324Z,17.83
2017-09-06T19:40:13.693Z,17.88
2017-09-06T19:45:16.140Z,17.85
2017-09-06T19:50:18.460Z,17.83
2017-09-06T19:55:20.935Z,17.67
2017-09-06T20:00:23.100Z,17.79
2017-09-06T20:05:25.490Z,17.75
2017-09-06T20:10:30.154Z,17.88
2017-09-06T20:15:33.967Z,17.88
2017-09-06T20:20:37.064Z,17.91
2017-09-06T20:25:40.099Z,17.87
2017-09-06T20:30:44.615Z,17.89
2017-09-06T20:35:48.029Z,17.88
2017-09-06T20:40:50.220Z,17.85
2017-09-06T20:45:52.199Z,17.75
2017-09-06T20:50:54.265Z,17.63
2017-09-06T20:55:56.893Z,17.51
2017-09-06T21:00:58.966Z,17.36
2017-09-06T21:06:00.960Z,17.24
2017-09-06T21:11:03.212Z,17.31
2017-09-06T21:16:05.189Z,17.33
2017-09-06T21:21:07.205Z,17.30
2017-09-06T21:26:09.192Z,17.24
2017-09-06T21:31:11.196Z,17.18
2017-09-06T21:36:13.278Z,17.10
2017-09-06T21:41:15.314Z,17.17
2017-09-06T21:46:17.266Z,17.05
2017-09-06T21:51:19.265Z,17.12
2017-09-06T21:56:21.348Z,17.25
2017-09-06T22:01:23.328Z,17.37
2017-09-06T22:06:25.300Z,17.44
2017-09-06T22:11:27.256Z,17.48
2017-09-06T22:16:29.211Z,17.45
2017-09-06T22:21:31.206Z,17.47
2017-09-06T22:26:33.198Z,17.44
2017-09-06T22:31:35.193Z,17.38
2017-09-06T22:36:37.275Z,17.37
2017-09-06T22:41:39.259Z,17.37
2017-09-06T22:46:41.249Z,17.37
2017-09-06T22:51:43.688Z,17.25
2017-09-06T22:56:47.564Z,17.19
2017-09-06T23:01:49.532Z,17.26
2017-09-06T23:06:51.455Z,17.29
2017-09-06T23:11:53.430Z,17.32
2017-09-06T23:16:55.382Z,17.31
2017-09-06T23:21:57.315Z,17.33
2017-09-06T23:26:59.290Z,17.33
2017-09-06T23:32:01.296Z,17.35
2017-09-06T23:37:03.240Z,17.32
2017-09-06T23:42:05.287Z,17.33
2017-09-06T23:47:07.342Z,17.34
2017-09-06T23:52:09.332Z,17.19
2017-09-06T23:57:11.600Z,17.17
